sensor_id;sensor_type;location;lat;lon;timestamp;temperature;humidity
76996;DHT22;65929;49.062;10.338;2024-02-15T00:00:52;9.20;86.20
76996;DHT22;65929;49.062;10.338;2024-02-15T00:01:53;9.30;86.10
76996;DHT22;65929;49.062;10.338;2024-02-15T00:02:53;9.30;86.10
76996;DHT22;65929;49.062;10.338;2024-02-15T00:03:54;9.30;86.00
76996;DHT22;65929;49.062;10.338;2024-02-15T00:04:55;9.30;86.10
76996;DHT22;65929;49.062;10.338;2024-02-15T00:05:57;9.40;86.00
76996;DHT22;65929;49.062;10.338;2024-02-15T00:06:58;9.40;85.90
76996;DHT22;65929;49.062;10.338;2024-02-15T00:08:00;9.40;85.80
76996;DHT22;65929;49.062;10.338;2024-02-15T00:09:01;9.40;85.70
76996;DHT22;65929;49.062;10.338;2024-02-15T00:10:03;9.40;85.50
76996;DHT22;65929;49.062;10.338;2024-02-15T00:11:04;9.40;85.60
76996;DHT22;65929;49.062;10.338;2024-02-15T00:12:05;9.50;85.50
76996;DHT22;65929;49.062;10.338;2024-02-15T00:13:07;9.50;85.50
76996;DHT22;65929;49.062;10.338;2024-02-15T00:14:08;9.50;85.40
76996;DHT22;65929;49.062;10.338;2024-02-15T00:15:09;9.50;85.40
76996;DHT22;65929;49.062;10.338;2024-02-15T00:16:13;9.50;85.30
76996;DHT22;65929;49.062;10.338;2024-02-15T00:17:14;9.50;85.30
76996;DHT22;65929;49.062;10.338;2024-02-15T00:18:15;9.50;85.30
76996;DHT22;65929;49.062;10.338;2024-02-15T00:19:16;9.50;85.30
76996;DHT22;65929;49.062;10.338;2024-02-15T00:20:17;9.50;85.40
76996;DHT22;65929;49.062;10.338;2024-02-15T00:21:19;9.50;85.30
76996;DHT22;65929;49.062;10.338;2024-02-15T00:22:19;9.50;85.30
76996;DHT22;65929;49.062;10.338;2024-02-15T00:23:23;9.50;85.30
76996;DHT22;65929;49.062;10.338;2024-02-15T00:24:24;9.50;85.40
76996;DHT22;65929;49.062;10.338;2024-02-15T00:25:25;9.50;85.30
76996;DHT22;65929;49.062;10.338;2024-02-15T00:26:26;9.50;85.30
76996;DHT22;65929;49.062;10.338;2024-02-15T00:27:27;9.50;85.30
76996;DHT22;65929;49.062;10.338;2024-02-15T00:28:28;9.50;85.30
76996;DHT22;65929;49.062;10.338;2024-02-15T00:29:29;9.50;85.30
76996;DHT22;65929;49.062;10.338;2024-02-15T00:30:30;9.50;85.20
76996;DHT22;65929;49.062;10.338;2024-02-15T00:31:32;9.40;85.20
76996;DHT22;65929;49.062;10.338;2024-02-15T00:32:33;9.40;85.40
76996;DHT22;65929;49.062;10.338;2024-02-15T00:33:34;9.40;85.40
76996;DHT22;65929;49.062;10.338;2024-02-15T00:34:37;9.40;85.40
76996;DHT22;65929;49.062;10.338;2024-02-15T00:35:41;9.40;85.50
76996;DHT22;65929;49.062;10.338;2024-02-15T00:36:42;9.40;85.50
76996;DHT22;65929;49.062;10.338;2024-02-15T00:37:44;9.30;85.50
76996;DHT22;65929;49.062;10.338;2024-02-15T00:38:46;9.30;85.60
76996;DHT22;65929;49.062;10.338;2024-02-15T00:39:48;9.30;85.90
76996;DHT22;65929;49.062;10.338;2024-02-15T00:40:49;9.20;86.00
76996;DHT22;65929;49.062;10.338;2024-02-15T00:41:50;9.30;85.90
76996;DHT22;65929;49.062;10.338;2024-02-15T00:42:51;9.30;85.90
76996;DHT22;65929;49.062;10.338;2024-02-15T00:43:51;9.30;85.90
76996;DHT22;65929;49.062;10.338;2024-02-15T00:44:52;9.30;85.90
76996;DHT22;65929;49.062;10.338;2024-02-15T00:45:53;9.30;85.90
76996;DHT22;65929;49.062;10.338;2024-02-15T00:46:54;9.30;85.80
76996;DHT22;65929;49.062;10.338;2024-02-15T00:47:56;9.30;85.90
76996;DHT22;65929;49.062;10.338;2024-02-15T00:48:57;9.30;85.90
76996;DHT22;65929;49.062;10.338;2024-02-15T00:49:58;9.30;86.00
76996;DHT22;65929;49.062;10.338;2024-02-15T00:50:59;9.30;85.90
76996;DHT22;65929;49.062;10.338;2024-02-15T00:52:00;9.30;86.00
76996;DHT22;65929;49.062;10.338;2024-02-15T00:53:01;9.30;86.00
76996;DHT22;65929;49.062;10.338;2024-02-15T00:54:03;9.20;86.10
76996;DHT22;65929;49.062;10.338;2024-02-15T00:55:05;9.20;86.20
76996;DHT22;65929;49.062;10.338;2024-02-15T00:56:06;9.20;86.30
76996;DHT22;65929;49.062;10.338;2024-02-15T00:57:07;9.20;86.20
76996;DHT22;65929;49.062;10.338;2024-02-15T00:58:08;9.20;86.30
76996;DHT22;65929;49.062;10.338;2024-02-15T00:59:09;9.20;86.40
76996;DHT22;65929;49.062;10.338;2024-02-15T01:00:11;9.20;86.50
76996;DHT22;65929;49.062;10.338;2024-02-15T01:01:12;9.20;86.50
76996;DHT22;65929;49.062;10.338;2024-02-15T01:02:13;9.20;86.60
76996;DHT22;65929;49.062;10.338;2024-02-15T01:03:15;9.20;86.60
76996;DHT22;65929;49.062;10.338;2024-02-15T01:04:15;9.20;86.60
76996;DHT22;65929;49.062;10.338;2024-02-15T01:05:16;9.20;86.60
76996;DHT22;65929;49.062;10.338;2024-02-15T01:06:19;9.20;86.60
76996;DHT22;65929;49.062;10.338;2024-02-15T01:07:20;9.20;86.50
76996;DHT22;65929;49.062;10.338;2024-02-15T01:08:21;9.20;86.50
76996;DHT22;65929;49.062;10.338;2024-02-15T01:09:23;9.20;86.50
76996;DHT22;65929;49.062;10.338;2024-02-15T01:10:24;9.20;86.50
76996;DHT22;65929;49.062;10.338;2024-02-15T01:11:25;9.20;86.60
76996;DHT22;65929;49.062;10.338;2024-02-15T01:12:26;9.20;86.60
76996;DHT22;65929;49.062;10.338;2024-02-15T01:13:27;9.20;86.60
76996;DHT22;65929;49.062;10.338;2024-02-15T01:14:28;9.20;86.60
76996;DHT22;65929;49.062;10.338;2024-02-15T01:15:31;9.10;86.60
76996;DHT22;65929;49.062;10.338;2024-02-15T01:16:32;9.20;86.60
76996;DHT22;65929;49.062;10.338;2024-02-15T01:17:32;9.20;86.70
76996;DHT22;65929;49.062;10.338;2024-02-15T01:18:34;9.20;86.70
76996;DHT22;65929;49.062;10.338;2024-02-15T01:19:35;9.20;86.70
76996;DHT22;65929;49.062;10.338;2024-02-15T01:20:36;9.10;86.70
76996;DHT22;65929;49.062;10.338;2024-02-15T01:21:37;9.10;86.90
76996;DHT22;65929;49.062;10.338;2024-02-15T01:22:38;9.10;86.90
76996;DHT22;65929;49.062;10.338;2024-02-15T01:23:39;9.20;86.80
76996;DHT22;65929;49.062;10.338;2024-02-15T01:24:41;9.20;86.70
76996;DHT22;65929;49.062;10.338;2024-02-15T01:25:42;9.20;86.60
76996;DHT22;65929;49.062;10.338;2024-02-15T01:26:43;9.20;86.50
76996;DHT22;65929;49.062;10.338;2024-02-15T01:27:44;9.20;86.50
76996;DHT22;65929;49.062;10.338;2024-02-15T01:28:45;9.20;86.50
76996;DHT22;65929;49.062;10.338;2024-02-15T01:29:46;9.20;86.60
76996;DHT22;65929;49.062;10.338;2024-02-15T01:30:46;9.20;86.60
76996;DHT22;65929;49.062;10.338;2024-02-15T01:31:47;9.20;86.60
76996;DHT22;65929;49.062;10.338;2024-02-15T01:32:49;9.20;86.50
76996;DHT22;65929;49.062;10.338;2024-02-15T01:33:50;9.20;86.60
76996;DHT22;65929;49.062;10.338;2024-02-15T01:34:51;9.20;86.60
76996;DHT22;65929;49.062;10.338;2024-02-15T01:35:54;9.10;86.50
76996;DHT22;65929;49.062;10.338;2024-02-15T01:36:55;9.10;86.50
76996;DHT22;65929;49.062;10.338;2024-02-15T01:37:56;9.10;86.60
76996;DHT22;65929;49.062;10.338;2024-02-15T01:38:57;9.10;86.60
76996;DHT22;65929;49.062;10.338;2024-02-15T01:39:59;9.10;86.70
76996;DHT22;65929;49.062;10.338;2024-02-15T01:41:00;9.10;86.70
76996;DHT22;65929;49.062;10.338;2024-02-15T01:42:01;9.10;86.60
76996;DHT22;65929;49.062;10.338;2024-02-15T01:43:04;9.10;86.70
76996;DHT22;65929;49.062;10.338;2024-02-15T01:44:05;9.10;86.60
76996;DHT22;65929;49.062;10.338;2024-02-15T01:45:07;9.10;86.60
76996;DHT22;65929;49.062;10.338;2024-02-15T01:46:10;9.10;86.70
76996;DHT22;65929;49.062;10.338;2024-02-15T01:47:11;9.10;86.60
76996;DHT22;65929;49.062;10.338;2024-02-15T01:48:13;9.10;86.70
76996;DHT22;65929;49.062;10.338;2024-02-15T01:49:15;9.00;86.70
76996;DHT22;65929;49.062;10.338;2024-02-15T01:50:17;9.00;86.80
76996;DHT22;65929;49.062;10.338;2024-02-15T01:51:18;9.00;86.80
76996;DHT22;65929;49.062;10.338;2024-02-15T01:52:19;9.00;86.80
76996;DHT22;65929;49.062;10.338;2024-02-15T01:53:20;9.10;86.80
76996;DHT22;65929;49.062;10.338;2024-02-15T01:54:21;9.00;86.80
76996;DHT22;65929;49.062;10.338;2024-02-15T01:55:24;9.10;86.70
76996;DHT22;65929;49.062;10.338;2024-02-15T01:56:25;9.00;86.80
76996;DHT22;65929;49.062;10.338;2024-02-15T01:57:27;9.10;86.70
76996;DHT22;65929;49.062;10.338;2024-02-15T01:58:28;9.00;86.80
76996;DHT22;65929;49.062;10.338;2024-02-15T01:59:32;9.10;86.80
76996;DHT22;65929;49.062;10.338;2024-02-15T02:00:33;9.10;86.70
76996;DHT22;65929;49.062;10.338;2024-02-15T02:01:35;9.10;86.70
76996;DHT22;65929;49.062;10.338;2024-02-15T02:02:38;9.10;86.60
76996;DHT22;65929;49.062;10.338;2024-02-15T02:03:40;9.10;86.60
76996;DHT22;65929;49.062;10.338;2024-02-15T02:04:41;9.10;86.60
76996;DHT22;65929;49.062;10.338;2024-02-15T02:05:42;9.10;86.60
76996;DHT22;65929;49.062;10.338;2024-02-15T02:06:43;9.10;86.70
76996;DHT22;65929;49.062;10.338;2024-02-15T02:07:44;9.00;86.60
76996;DHT22;65929;49.062;10.338;2024-02-15T02:08:45;9.00;86.70
76996;DHT22;65929;49.062;10.338;2024-02-15T02:09:46;9.00;86.80
76996;DHT22;65929;49.062;10.338;2024-02-15T02:10:50;9.00;86.80
76996;DHT22;65929;49.062;10.338;2024-02-15T02:11:51;9.00;86.80
76996;DHT22;65929;49.062;10.338;2024-02-15T02:12:52;9.00;86.80
76996;DHT22;65929;49.062;10.338;2024-02-15T02:13:53;9.00;86.90
76996;DHT22;65929;49.062;10.338;2024-02-15T02:14:54;9.00;86.90
76996;DHT22;65929;49.062;10.338;2024-02-15T02:15:55;9.00;87.00
76996;DHT22;65929;49.062;10.338;2024-02-15T02:17:10;9.00;87.00
76996;DHT22;65929;49.062;10.338;2024-02-15T02:18:12;9.00;87.00
76996;DHT22;65929;49.062;10.338;2024-02-15T02:19:13;9.00;87.00
76996;DHT22;65929;49.062;10.338;2024-02-15T02:20:14;9.00;87.00
76996;DHT22;65929;49.062;10.338;2024-02-15T02:21:15;9.00;87.00
76996;DHT22;65929;49.062;10.338;2024-02-15T02:22:16;9.00;87.00
76996;DHT22;65929;49.062;10.338;2024-02-15T02:23:21;9.00;87.20
76996;DHT22;65929;49.062;10.338;2024-02-15T02:24:26;9.00;87.20
76996;DHT22;65929;49.062;10.338;2024-02-15T02:25:29;8.90;87.20
76996;DHT22;65929;49.062;10.338;2024-02-15T02:26:31;8.90;87.20
76996;DHT22;65929;49.062;10.338;2024-02-15T02:27:32;8.90;87.20
76996;DHT22;65929;49.062;10.338;2024-02-15T02:28:33;8.90;87.20
76996;DHT22;65929;49.062;10.338;2024-02-15T02:29:34;8.90;87.40
76996;DHT22;65929;49.062;10.338;2024-02-15T02:30:35;8.90;87.40
76996;DHT22;65929;49.062;10.338;2024-02-15T02:31:36;8.90;87.40
76996;DHT22;65929;49.062;10.338;2024-02-15T02:32:37;8.90;87.40
76996;DHT22;65929;49.062;10.338;2024-02-15T02:33:39;8.90;87.60
76996;DHT22;65929;49.062;10.338;2024-02-15T02:34:40;8.90;87.70
76996;DHT22;65929;49.062;10.338;2024-02-15T02:35:45;8.90;87.60
76996;DHT22;65929;49.062;10.338;2024-02-15T02:36:46;8.90;87.60
76996;DHT22;65929;49.062;10.338;2024-02-15T02:37:48;8.90;87.50
76996;DHT22;65929;49.062;10.338;2024-02-15T02:38:49;8.90;87.60
76996;DHT22;65929;49.062;10.338;2024-02-15T02:39:50;8.90;87.80
76996;DHT22;65929;49.062;10.338;2024-02-15T02:40:53;8.90;87.60
76996;DHT22;65929;49.062;10.338;2024-02-15T02:41:54;8.90;87.60
76996;DHT22;65929;49.062;10.338;2024-02-15T02:42:56;8.90;87.60
76996;DHT22;65929;49.062;10.338;2024-02-15T02:43:57;8.90;87.50
76996;DHT22;65929;49.062;10.338;2024-02-15T02:44:58;8.90;87.50
76996;DHT22;65929;49.062;10.338;2024-02-15T02:45:59;8.90;87.60
76996;DHT22;65929;49.062;10.338;2024-02-15T02:47:00;8.90;87.50
76996;DHT22;65929;49.062;10.338;2024-02-15T02:48:01;8.90;87.60
76996;DHT22;65929;49.062;10.338;2024-02-15T02:49:02;8.90;87.60
76996;DHT22;65929;49.062;10.338;2024-02-15T02:50:04;8.90;87.60
76996;DHT22;65929;49.062;10.338;2024-02-15T02:51:06;8.80;87.70
76996;DHT22;65929;49.062;10.338;2024-02-15T02:52:07;8.90;87.80
76996;DHT22;65929;49.062;10.338;2024-02-15T02:53:09;8.80;87.70
76996;DHT22;65929;49.062;10.338;2024-02-15T02:54:11;8.90;87.70
76996;DHT22;65929;49.062;10.338;2024-02-15T02:55:12;8.80;87.80
76996;DHT22;65929;49.062;10.338;2024-02-15T02:56:14;8.80;87.80
76996;DHT22;65929;49.062;10.338;2024-02-15T02:57:15;8.90;87.80
76996;DHT22;65929;49.062;10.338;2024-02-15T02:58:16;8.90;87.80
76996;DHT22;65929;49.062;10.338;2024-02-15T02:59:17;8.90;87.70
76996;DHT22;65929;49.062;10.338;2024-02-15T03:00:18;8.90;87.70
76996;DHT22;65929;49.062;10.338;2024-02-15T03:01:22;8.80;87.70
76996;DHT22;65929;49.062;10.338;2024-02-15T03:02:25;8.80;87.80
76996;DHT22;65929;49.062;10.338;2024-02-15T03:03:26;8.80;87.80
76996;DHT22;65929;49.062;10.338;2024-02-15T03:04:28;8.80;87.90
76996;DHT22;65929;49.062;10.338;2024-02-15T03:05:29;8.80;87.90
76996;DHT22;65929;49.062;10.338;2024-02-15T03:06:30;8.80;87.80
76996;DHT22;65929;49.062;10.338;2024-02-15T03:07:32;8.80;87.90
76996;DHT22;65929;49.062;10.338;2024-02-15T03:08:33;8.80;88.10
76996;DHT22;65929;49.062;10.338;2024-02-15T03:09:34;8.70;88.10
76996;DHT22;65929;49.062;10.338;2024-02-15T03:10:37;8.70;88.20
76996;DHT22;65929;49.062;10.338;2024-02-15T03:11:40;8.70;88.10
76996;DHT22;65929;49.062;10.338;2024-02-15T03:12:41;8.70;88.20
76996;DHT22;65929;49.062;10.338;2024-02-15T03:13:47;8.70;88.30
76996;DHT22;65929;49.062;10.338;2024-02-15T03:14:49;8.60;88.30
76996;DHT22;65929;49.062;10.338;2024-02-15T03:15:50;8.60;88.40
76996;DHT22;65929;49.062;10.338;2024-02-15T03:16:51;8.60;88.40
76996;DHT22;65929;49.062;10.338;2024-02-15T03:17:52;8.60;88.40
76996;DHT22;65929;49.062;10.338;2024-02-15T03:18:53;8.60;88.40
76996;DHT22;65929;49.062;10.338;2024-02-15T03:19:54;8.60;88.50
76996;DHT22;65929;49.062;10.338;2024-02-15T03:20:56;8.60;88.50
76996;DHT22;65929;49.062;10.338;2024-02-15T03:21:57;8.60;88.50
76996;DHT22;65929;49.062;10.338;2024-02-15T03:22:58;8.60;88.40
76996;DHT22;65929;49.062;10.338;2024-02-15T03:23:59;8.60;88.40
76996;DHT22;65929;49.062;10.338;2024-02-15T03:25:00;8.60;88.40
76996;DHT22;65929;49.062;10.338;2024-02-15T03:26:02;8.60;88.50
76996;DHT22;65929;49.062;10.338;2024-02-15T03:27:05;8.60;88.40
76996;DHT22;65929;49.062;10.338;2024-02-15T03:28:06;8.60;88.50
76996;DHT22;65929;49.062;10.338;2024-02-15T03:29:07;8.60;88.60
76996;DHT22;65929;49.062;10.338;2024-02-15T03:30:08;8.60;88.70
76996;DHT22;65929;49.062;10.338;2024-02-15T03:31:11;8.60;88.70
76996;DHT22;65929;49.062;10.338;2024-02-15T03:32:12;8.60;88.80
76996;DHT22;65929;49.062;10.338;2024-02-15T03:33:13;8.60;88.80
76996;DHT22;65929;49.062;10.338;2024-02-15T03:34:14;8.60;88.70
76996;DHT22;65929;49.062;10.338;2024-02-15T03:35:16;8.60;88.90
76996;DHT22;65929;49.062;10.338;2024-02-15T03:36:17;8.60;88.90
76996;DHT22;65929;49.062;10.338;2024-02-15T03:37:20;8.60;88.90
76996;DHT22;65929;49.062;10.338;2024-02-15T03:38:21;8.60;89.00
76996;DHT22;65929;49.062;10.338;2024-02-15T03:39:22;8.60;89.00
76996;DHT22;65929;49.062;10.338;2024-02-15T03:40:24;8.60;89.00
76996;DHT22;65929;49.062;10.338;2024-02-15T03:41:28;8.60;89.10
76996;DHT22;65929;49.062;10.338;2024-02-15T03:42:34;8.60;89.10
76996;DHT22;65929;49.062;10.338;2024-02-15T03:43:38;8.60;89.10
76996;DHT22;65929;49.062;10.338;2024-02-15T03:44:39;8.60;89.10
76996;DHT22;65929;49.062;10.338;2024-02-15T03:45:41;8.60;89.10
76996;DHT22;65929;49.062;10.338;2024-02-15T03:46:45;8.60;89.20
76996;DHT22;65929;49.062;10.338;2024-02-15T03:47:51;8.60;89.10
76996;DHT22;65929;49.062;10.338;2024-02-15T03:48:53;8.60;89.20
76996;DHT22;65929;49.062;10.338;2024-02-15T03:49:56;8.60;89.30
76996;DHT22;65929;49.062;10.338;2024-02-15T03:50:57;8.60;89.20
76996;DHT22;65929;49.062;10.338;2024-02-15T03:51:59;8.60;89.20
76996;DHT22;65929;49.062;10.338;2024-02-15T03:53:03;8.60;89.20
76996;DHT22;65929;49.062;10.338;2024-02-15T03:54:04;8.60;89.30
76996;DHT22;65929;49.062;10.338;2024-02-15T03:55:05;8.60;89.30
76996;DHT22;65929;49.062;10.338;2024-02-15T03:56:08;8.60;89.30
76996;DHT22;65929;49.062;10.338;2024-02-15T03:57:09;8.60;89.10
76996;DHT22;65929;49.062;10.338;2024-02-15T03:58:13;8.60;89.10
76996;DHT22;65929;49.062;10.338;2024-02-15T03:59:15;8.60;89.10
76996;DHT22;65929;49.062;10.338;2024-02-15T04:00:16;8.60;89.00
76996;DHT22;65929;49.062;10.338;2024-02-15T04:01:21;8.60;89.10
76996;DHT22;65929;49.062;10.338;2024-02-15T04:02:22;8.60;89.10
76996;DHT22;65929;49.062;10.338;2024-02-15T04:03:24;8.70;89.00
76996;DHT22;65929;49.062;10.338;2024-02-15T04:04:24;8.70;88.90
76996;DHT22;65929;49.062;10.338;2024-02-15T04:05:26;8.60;88.90
76996;DHT22;65929;49.062;10.338;2024-02-15T04:06:27;8.70;88.80
76996;DHT22;65929;49.062;10.338;2024-02-15T04:14:10;8.70;88.80
76996;DHT22;65929;49.062;10.338;2024-02-15T04:15:11;8.70;88.70
76996;DHT22;65929;49.062;10.338;2024-02-15T04:16:12;8.70;88.70
76996;DHT22;65929;49.062;10.338;2024-02-15T04:17:14;8.60;88.70
76996;DHT22;65929;49.062;10.338;2024-02-15T04:18:17;8.60;88.80
76996;DHT22;65929;49.062;10.338;2024-02-15T04:19:18;8.60;88.80
76996;DHT22;65929;49.062;10.338;2024-02-15T04:20:22;8.60;88.80
76996;DHT22;65929;49.062;10.338;2024-02-15T04:21:23;8.60;88.90
76996;DHT22;65929;49.062;10.338;2024-02-15T04:22:24;8.60;88.90
76996;DHT22;65929;49.062;10.338;2024-02-15T04:23:25;8.50;89.00
76996;DHT22;65929;49.062;10.338;2024-02-15T04:24:26;8.50;89.10
76996;DHT22;65929;49.062;10.338;2024-02-15T04:25:27;8.50;89.20
76996;DHT22;65929;49.062;10.338;2024-02-15T04:26:28;8.40;89.30
76996;DHT22;65929;49.062;10.338;2024-02-15T04:27:30;8.40;89.50
76996;DHT22;65929;49.062;10.338;2024-02-15T04:28:31;8.40;89.60
76996;DHT22;65929;49.062;10.338;2024-02-15T04:29:35;8.30;89.70
76996;DHT22;65929;49.062;10.338;2024-02-15T04:30:37;8.30;89.90
76996;DHT22;65929;49.062;10.338;2024-02-15T04:31:39;8.20;89.90
76996;DHT22;65929;49.062;10.338;2024-02-15T04:32:40;8.20;90.10
76996;DHT22;65929;49.062;10.338;2024-02-15T04:33:41;8.20;90.10
76996;DHT22;65929;49.062;10.338;2024-02-15T04:34:42;8.10;90.30
76996;DHT22;65929;49.062;10.338;2024-02-15T04:35:43;8.00;90.40
76996;DHT22;65929;49.062;10.338;2024-02-15T04:36:46;8.00;90.60
76996;DHT22;65929;49.062;10.338;2024-02-15T04:37:51;8.00;90.80
76996;DHT22;65929;49.062;10.338;2024-02-15T04:38:53;8.00;91.00
76996;DHT22;65929;49.062;10.338;2024-02-15T04:39:55;8.00;91.20
76996;DHT22;65929;49.062;10.338;2024-02-15T04:40:57;7.90;91.00
76996;DHT22;65929;49.062;10.338;2024-02-15T04:42:00;7.80;91.20
76996;DHT22;65929;49.062;10.338;2024-02-15T04:43:01;7.80;91.50
76996;DHT22;65929;49.062;10.338;2024-02-15T04:44:04;7.80;91.50
76996;DHT22;65929;49.062;10.338;2024-02-15T04:45:10;7.80;91.60
76996;DHT22;65929;49.062;10.338;2024-02-15T04:46:14;7.70;91.80
76996;DHT22;65929;49.062;10.338;2024-02-15T04:47:15;7.60;91.90
76996;DHT22;65929;49.062;10.338;2024-02-15T04:48:16;7.60;92.00
76996;DHT22;65929;49.062;10.338;2024-02-15T04:49:18;7.60;92.20
76996;DHT22;65929;49.062;10.338;2024-02-15T04:50:19;7.60;92.30
76996;DHT22;65929;49.062;10.338;2024-02-15T04:51:21;7.50;92.40
76996;DHT22;65929;49.062;10.338;2024-02-15T04:52:22;7.50;92.70
76996;DHT22;65929;49.062;10.338;2024-02-15T04:53:24;7.60;92.80
76996;DHT22;65929;49.062;10.338;2024-02-15T04:54:25;7.60;92.70
76996;DHT22;65929;49.062;10.338;2024-02-15T04:55:26;7.60;92.70
76996;DHT22;65929;49.062;10.338;2024-02-15T04:56:31;7.60;92.70
76996;DHT22;65929;49.062;10.338;2024-02-15T04:57:33;7.60;92.80
76996;DHT22;65929;49.062;10.338;2024-02-15T04:58:37;7.60;92.70
76996;DHT22;65929;49.062;10.338;2024-02-15T04:59:39;7.70;92.60
76996;DHT22;65929;49.062;10.338;2024-02-15T05:00:41;7.70;92.40
76996;DHT22;65929;49.062;10.338;2024-02-15T05:01:42;7.70;92.20
76996;DHT22;65929;49.062;10.338;2024-02-15T05:02:43;7.70;92.20
76996;DHT22;65929;49.062;10.338;2024-02-15T05:03:45;7.70;92.20
76996;DHT22;65929;49.062;10.338;2024-02-15T05:04:46;7.70;92.30
76996;DHT22;65929;49.062;10.338;2024-02-15T05:05:47;7.70;92.30
76996;DHT22;65929;49.062;10.338;2024-02-15T05:06:48;7.80;92.40
76996;DHT22;65929;49.062;10.338;2024-02-15T05:07:49;7.80;92.30
76996;DHT22;65929;49.062;10.338;2024-02-15T05:08:51;7.80;92.20
76996;DHT22;65929;49.062;10.338;2024-02-15T05:09:52;7.80;92.10
76996;DHT22;65929;49.062;10.338;2024-02-15T05:10:53;7.90;92.00
76996;DHT22;65929;49.062;10.338;2024-02-15T05:11:59;8.00;91.70
76996;DHT22;65929;49.062;10.338;2024-02-15T05:13:00;7.90;91.40
76996;DHT22;65929;49.062;10.338;2024-02-15T05:14:01;8.00;91.20
76996;DHT22;65929;49.062;10.338;2024-02-15T05:15:04;8.00;91.10
76996;DHT22;65929;49.062;10.338;2024-02-15T05:16:12;8.00;91.00
76996;DHT22;65929;49.062;10.338;2024-02-15T05:17:13;8.00;91.00
76996;DHT22;65929;49.062;10.338;2024-02-15T05:18:14;8.00;90.90
76996;DHT22;65929;49.062;10.338;2024-02-15T05:19:15;8.00;91.00
76996;DHT22;65929;49.062;10.338;2024-02-15T05:20:16;8.00;90.80
76996;DHT22;65929;49.062;10.338;2024-02-15T05:21:17;8.00;90.70
76996;DHT22;65929;49.062;10.338;2024-02-15T05:22:18;8.00;90.60
76996;DHT22;65929;49.062;10.338;2024-02-15T05:23:19;8.00;90.60
76996;DHT22;65929;49.062;10.338;2024-02-15T05:24:20;8.00;90.60
76996;DHT22;65929;49.062;10.338;2024-02-15T05:25:22;8.00;90.60
76996;DHT22;65929;49.062;10.338;2024-02-15T05:26:23;8.00;90.60
76996;DHT22;65929;49.062;10.338;2024-02-15T05:27:24;8.00;90.80
76996;DHT22;65929;49.062;10.338;2024-02-15T05:28:25;8.00;91.00
76996;DHT22;65929;49.062;10.338;2024-02-15T05:29:27;8.00;91.00
76996;DHT22;65929;49.062;10.338;2024-02-15T05:30:28;8.00;90.90
76996;DHT22;65929;49.062;10.338;2024-02-15T05:31:34;8.00;91.00
76996;DHT22;65929;49.062;10.338;2024-02-15T05:32:38;8.00;90.90
76996;DHT22;65929;49.062;10.338;2024-02-15T05:33:43;8.00;90.80
76996;DHT22;65929;49.062;10.338;2024-02-15T05:34:44;8.00;90.70
76996;DHT22;65929;49.062;10.338;2024-02-15T05:35:45;8.00;90.70
76996;DHT22;65929;49.062;10.338;2024-02-15T05:36:50;8.10;90.70
76996;DHT22;65929;49.062;10.338;2024-02-15T05:37:52;8.10;90.60
76996;DHT22;65929;49.062;10.338;2024-02-15T05:38:53;8.10;90.40
76996;DHT22;65929;49.062;10.338;2024-02-15T05:39:55;8.20;90.20
76996;DHT22;65929;49.062;10.338;2024-02-15T05:40:56;8.20;90.10
76996;DHT22;65929;49.062;10.338;2024-02-15T05:41:57;8.20;90.00
76996;DHT22;65929;49.062;10.338;2024-02-15T05:43:01;8.20;89.90
76996;DHT22;65929;49.062;10.338;2024-02-15T05:44:03;8.20;89.90
76996;DHT22;65929;49.062;10.338;2024-02-15T05:45:29;8.20;89.80
76996;DHT22;65929;49.062;10.338;2024-02-15T05:46:34;8.20;89.70
76996;DHT22;65929;49.062;10.338;2024-02-15T05:47:40;8.20;89.60
76996;DHT22;65929;49.062;10.338;2024-02-15T05:48:41;8.20;89.60
76996;DHT22;65929;49.062;10.338;2024-02-15T05:49:42;8.20;89.50
76996;DHT22;65929;49.062;10.338;2024-02-15T05:50:44;8.20;89.40
76996;DHT22;65929;49.062;10.338;2024-02-15T05:51:45;8.30;89.30
76996;DHT22;65929;49.062;10.338;2024-02-15T05:52:46;8.30;89.30
76996;DHT22;65929;49.062;10.338;2024-02-15T05:53:47;8.30;89.30
76996;DHT22;65929;49.062;10.338;2024-02-15T05:54:50;8.20;89.40
76996;DHT22;65929;49.062;10.338;2024-02-15T05:55:52;8.20;89.50
76996;DHT22;65929;49.062;10.338;2024-02-15T05:56:53;8.20;89.60
76996;DHT22;65929;49.062;10.338;2024-02-15T05:57:56;8.20;89.50
76996;DHT22;65929;49.062;10.338;2024-02-15T05:58:56;8.20;89.40
76996;DHT22;65929;49.062;10.338;2024-02-15T05:59:57;8.30;89.20
76996;DHT22;65929;49.062;10.338;2024-02-15T06:01:03;8.30;89.10
76996;DHT22;65929;49.062;10.338;2024-02-15T06:02:07;8.30;89.00
76996;DHT22;65929;49.062;10.338;2024-02-15T06:03:08;8.30;88.90
76996;DHT22;65929;49.062;10.338;2024-02-15T06:04:09;8.30;89.00
76996;DHT22;65929;49.062;10.338;2024-02-15T06:05:10;8.30;88.90
76996;DHT22;65929;49.062;10.338;2024-02-15T06:06:11;8.30;88.70
76996;DHT22;65929;49.062;10.338;2024-02-15T06:07:13;8.40;88.50
76996;DHT22;65929;49.062;10.338;2024-02-15T06:08:14;8.40;88.50
76996;DHT22;65929;49.062;10.338;2024-02-15T06:09:15;8.40;88.40
76996;DHT22;65929;49.062;10.338;2024-02-15T06:10:16;8.40;88.20
76996;DHT22;65929;49.062;10.338;2024-02-15T06:11:19;8.40;88.00
76996;DHT22;65929;49.062;10.338;2024-02-15T06:12:22;8.50;87.90
76996;DHT22;65929;49.062;10.338;2024-02-15T06:13:25;8.50;87.80
76996;DHT22;65929;49.062;10.338;2024-02-15T06:14:26;8.50;87.70
76996;DHT22;65929;49.062;10.338;2024-02-15T06:15:27;8.50;87.60
76996;DHT22;65929;49.062;10.338;2024-02-15T06:16:28;8.50;87.60
76996;DHT22;65929;49.062;10.338;2024-02-15T06:17:30;8.50;87.60
76996;DHT22;65929;49.062;10.338;2024-02-15T06:18:31;8.50;87.40
76996;DHT22;65929;49.062;10.338;2024-02-15T06:19:33;8.60;87.30
76996;DHT22;65929;49.062;10.338;2024-02-15T06:20:34;8.60;87.30
76996;DHT22;65929;49.062;10.338;2024-02-15T06:21:36;8.60;87.20
76996;DHT22;65929;49.062;10.338;2024-02-15T06:22:38;8.60;87.20
76996;DHT22;65929;49.062;10.338;2024-02-15T06:23:39;8.60;87.20
76996;DHT22;65929;49.062;10.338;2024-02-15T06:24:40;8.60;87.20
76996;DHT22;65929;49.062;10.338;2024-02-15T06:25:42;8.60;87.20
76996;DHT22;65929;49.062;10.338;2024-02-15T06:26:43;8.60;87.10
76996;DHT22;65929;49.062;10.338;2024-02-15T06:27:45;8.60;86.90
76996;DHT22;65929;49.062;10.338;2024-02-15T06:28:47;8.60;86.70
76996;DHT22;65929;49.062;10.338;2024-02-15T06:30:07;8.60;86.80
76996;DHT22;65929;49.062;10.338;2024-02-15T06:31:27;8.60;86.90
76996;DHT22;65929;49.062;10.338;2024-02-15T06:32:47;8.60;87.00
76996;DHT22;65929;49.062;10.338;2024-02-15T06:34:07;8.60;87.00
76996;DHT22;65929;49.062;10.338;2024-02-15T06:35:26;8.60;87.00
76996;DHT22;65929;49.062;10.338;2024-02-15T06:36:46;8.60;87.20
76996;DHT22;65929;49.062;10.338;2024-02-15T06:38:06;8.60;87.10
76996;DHT22;65929;49.062;10.338;2024-02-15T06:39:25;8.60;87.30